sensor_id;sensor_type;location;lat;lon;timestamp;P1;durP1;ratioP1;P2;durP2;ratioP2
59169;SDS011;52474;52.236;5.114;2022-12-10T00:00:54;85.15;;;26.98;;
59169;SDS011;52474;52.236;5.114;2022-12-10T00:03:20;61.08;;;20.10;;
59169;SDS011;52474;52.236;5.114;2022-12-10T00:05:46;80.22;;;27.35;;
59169;SDS011;52474;52.236;5.114;2022-12-10T00:08:11;88.75;;;24.80;;
59169;SDS011;52474;52.236;5.114;2022-12-10T00:10:40;86.43;;;25.55;;
59169;SDS011;52474;52.236;5.114;2022-12-10T00:13:06;79.85;;;27.08;;
59169;SDS011;52474;52.236;5.114;2022-12-10T00:15:34;80.22;;;26.35;;
59169;SDS011;52474;52.236;5.114;2022-12-10T00:18:00;81.13;;;27.23;;
59169;SDS011;52474;52.236;5.114;2022-12-10T00:20:25;81.80;;;25.42;;
59169;SDS011;52474;52.236;5.114;2022-12-10T00:22:51;83.35;;;25.65;;
59169;SDS011;52474;52.236;5.114;2022-12-10T00:25:17;80.88;;;25.58;;
59169;SDS011;52474;52.236;5.114;2022-12-10T00:27:42;75.70;;;25.55;;
59169;SDS011;52474;52.236;5.114;2022-12-10T00:30:09;71.13;;;24.83;;
59169;SDS011;52474;52.236;5.114;2022-12-10T00:32:35;73.60;;;25.35;;
59169;SDS011;52474;52.236;5.114;2022-12-10T00:35:01;83.28;;;25.92;;
59169;SDS011;52474;52.236;5.114;2022-12-10T00:37:27;82.93;;;25.40;;
59169;SDS011;52474;52.236;5.114;2022-12-10T00:39:53;85.47;;;27.55;;
59169;SDS011;52474;52.236;5.114;2022-12-10T00:42:19;96.30;;;27.33;;
59169;SDS011;52474;52.236;5.114;2022-12-10T00:44:44;106.03;;;27.83;;
59169;SDS011;52474;52.236;5.114;2022-12-10T00:47:10;97.70;;;28.42;;
59169;SDS011;52474;52.236;5.114;2022-12-10T00:49:36;92.93;;;26.88;;
59169;SDS011;52474;52.236;5.114;2022-12-10T00:52:01;105.00;;;29.27;;
59169;SDS011;52474;52.236;5.114;2022-12-10T00:54:29;101.90;;;27.63;;
59169;SDS011;52474;52.236;5.114;2022-12-10T00:56:55;93.30;;;26.98;;
59169;SDS011;52474;52.236;5.114;2022-12-10T00:59:20;100.00;;;25.88;;
59169;SDS011;52474;52.236;5.114;2022-12-10T01:01:46;99.38;;;25.23;;
59169;SDS011;52474;52.236;5.114;2022-12-10T01:04:16;126.78;;;29.48;;
59169;SDS011;52474;52.236;5.114;2022-12-10T01:06:47;110.25;;;26.42;;
59169;SDS011;52474;52.236;5.114;2022-12-10T01:09:18;102.53;;;23.60;;
59169;SDS011;52474;52.236;5.114;2022-12-10T01:11:46;106.63;;;23.85;;
59169;SDS011;52474;52.236;5.114;2022-12-10T01:14:15;144.50;;;27.33;;
59169;SDS011;52474;52.236;5.114;2022-12-10T01:16:46;128.25;;;26.60;;
59169;SDS011;52474;52.236;5.114;2022-12-10T01:19:12;129.02;;;28.08;;
59169;SDS011;52474;52.236;5.114;2022-12-10T01:21:38;123.20;;;26.15;;
59169;SDS011;52474;52.236;5.114;2022-12-10T01:24:04;160.40;;;30.48;;
59169;SDS011;52474;52.236;5.114;2022-12-10T01:26:32;128.07;;;25.92;;
59169;SDS011;52474;52.236;5.114;2022-12-10T01:29:00;107.85;;;24.60;;
59169;SDS011;52474;52.236;5.114;2022-12-10T01:31:28;142.90;;;24.92;;
59169;SDS011;52474;52.236;5.114;2022-12-10T01:33:56;149.52;;;23.17;;
59169;SDS011;52474;52.236;5.114;2022-12-10T01:36:30;143.83;;;26.20;;
59169;SDS011;52474;52.236;5.114;2022-12-10T01:39:07;116.25;;;20.50;;
59169;SDS011;52474;52.236;5.114;2022-12-10T01:41:36;106.75;;;21.40;;
59169;SDS011;52474;52.236;5.114;2022-12-10T01:46:38;140.13;;;22.55;;
59169;SDS011;52474;52.236;5.114;2022-12-10T01:49:12;121.10;;;22.13;;
59169;SDS011;52474;52.236;5.114;2022-12-10T01:51:58;129.57;;;24.33;;
59169;SDS011;52474;52.236;5.114;2022-12-10T01:54:32;142.50;;;21.92;;
59169;SDS011;52474;52.236;5.114;2022-12-10T01:57:01;138.52;;;22.63;;
59169;SDS011;52474;52.236;5.114;2022-12-10T01:59:30;137.15;;;24.77;;
59169;SDS011;52474;52.236;5.114;2022-12-10T02:04:31;140.88;;;24.90;;
59169;SDS011;52474;52.236;5.114;2022-12-10T02:07:04;139.27;;;23.92;;
59169;SDS011;52474;52.236;5.114;2022-12-10T02:09:52;152.65;;;24.38;;
59169;SDS011;52474;52.236;5.114;2022-12-10T02:12:34;122.35;;;24.00;;
59169;SDS011;52474;52.236;5.114;2022-12-10T02:15:19;129.93;;;23.90;;
59169;SDS011;52474;52.236;5.114;2022-12-10T02:20:23;187.07;;;27.25;;
59169;SDS011;52474;52.236;5.114;2022-12-10T02:23:08;149.45;;;24.50;;
59169;SDS011;52474;52.236;5.114;2022-12-10T02:31:17;207.25;;;29.00;;
59169;SDS011;52474;52.236;5.114;2022-12-10T02:33:52;223.52;;;30.33;;
59169;SDS011;52474;52.236;5.114;2022-12-10T02:36:22;236.63;;;31.50;;
59169;SDS011;52474;52.236;5.114;2022-12-10T02:38:52;208.13;;;28.48;;
59169;SDS011;52474;52.236;5.114;2022-12-10T02:41:23;243.30;;;29.05;;
59169;SDS011;52474;52.236;5.114;2022-12-10T02:44:12;207.32;;;28.08;;
59169;SDS011;52474;52.236;5.114;2022-12-10T02:46:43;181.43;;;27.70;;
59169;SDS011;52474;52.236;5.114;2022-12-10T02:49:11;175.40;;;30.33;;
59169;SDS011;52474;52.236;5.114;2022-12-10T02:51:40;219.70;;;29.83;;
59169;SDS011;52474;52.236;5.114;2022-12-10T02:54:31;202.18;;;30.85;;
59169;SDS011;52474;52.236;5.114;2022-12-10T03:08:18;241.68;;;33.28;;
59169;SDS011;52474;52.236;5.114;2022-12-10T03:13:27;202.10;;;30.00;;
59169;SDS011;52474;52.236;5.114;2022-12-10T03:15:58;287.10;;;35.40;;
59169;SDS011;52474;52.236;5.114;2022-12-10T03:18:25;267.67;;;35.72;;
59169;SDS011;52474;52.236;5.114;2022-12-10T03:20:52;227.45;;;32.13;;
59169;SDS011;52474;52.236;5.114;2022-12-10T03:23:23;350.77;;;39.28;;
59169;SDS011;52474;52.236;5.114;2022-12-10T03:25:51;280.67;;;36.80;;
59169;SDS011;52474;52.236;5.114;2022-12-10T03:28:18;275.27;;;33.60;;
59169;SDS011;52474;52.236;5.114;2022-12-10T03:30:46;267.95;;;35.85;;
59169;SDS011;52474;52.236;5.114;2022-12-10T03:33:15;288.63;;;34.55;;
59169;SDS011;52474;52.236;5.114;2022-12-10T03:35:41;420.15;;;39.38;;
59169;SDS011;52474;52.236;5.114;2022-12-10T03:38:07;329.42;;;39.13;;
59169;SDS011;52474;52.236;5.114;2022-12-10T03:40:35;495.13;;;45.17;;
59169;SDS011;52474;52.236;5.114;2022-12-10T03:43:00;391.48;;;40.08;;
59169;SDS011;52474;52.236;5.114;2022-12-10T03:45:26;415.05;;;41.05;;
59169;SDS011;52474;52.236;5.114;2022-12-10T03:47:52;407.13;;;41.25;;
59169;SDS011;52474;52.236;5.114;2022-12-10T03:50:18;304.17;;;34.67;;
59169;SDS011;52474;52.236;5.114;2022-12-10T03:52:44;374.13;;;38.15;;
59169;SDS011;52474;52.236;5.114;2022-12-10T03:55:10;288.70;;;34.15;;
59169;SDS011;52474;52.236;5.114;2022-12-10T03:57:36;310.25;;;35.75;;
59169;SDS011;52474;52.236;5.114;2022-12-10T04:00:03;289.92;;;33.10;;
59169;SDS011;52474;52.236;5.114;2022-12-10T04:02:37;304.73;;;34.40;;
59169;SDS011;52474;52.236;5.114;2022-12-10T04:05:03;283.30;;;32.15;;
59169;SDS011;52474;52.236;5.114;2022-12-10T04:07:30;275.92;;;32.17;;
59169;SDS011;52474;52.236;5.114;2022-12-10T04:09:55;200.77;;;26.52;;
59169;SDS011;52474;52.236;5.114;2022-12-10T04:12:21;200.75;;;26.60;;
59169;SDS011;52474;52.236;5.114;2022-12-10T04:14:47;171.82;;;24.73;;
59169;SDS011;52474;52.236;5.114;2022-12-10T04:17:32;280.20;;;33.38;;
59169;SDS011;52474;52.236;5.114;2022-12-10T04:19:58;220.35;;;30.38;;
59169;SDS011;52474;52.236;5.114;2022-12-10T04:22:24;255.73;;;33.47;;
59169;SDS011;52474;52.236;5.114;2022-12-10T04:25:11;256.38;;;31.80;;
59169;SDS011;52474;52.236;5.114;2022-12-10T04:27:56;231.68;;;29.55;;
59169;SDS011;52474;52.236;5.114;2022-12-10T04:30:22;335.05;;;36.08;;
59169;SDS011;52474;52.236;5.114;2022-12-10T04:32:48;304.05;;;36.03;;
59169;SDS011;52474;52.236;5.114;2022-12-10T04:35:14;262.83;;;30.73;;
59169;SDS011;52474;52.236;5.114;2022-12-10T04:37:40;351.42;;;36.45;;
59169;SDS011;52474;52.236;5.114;2022-12-10T04:40:06;301.02;;;35.78;;
59169;SDS011;52474;52.236;5.114;2022-12-10T04:42:32;349.27;;;35.28;;
59169;SDS011;52474;52.236;5.114;2022-12-10T04:44:58;380.48;;;40.13;;
59169;SDS011;52474;52.236;5.114;2022-12-10T04:47:24;302.10;;;40.15;;
59169;SDS011;52474;52.236;5.114;2022-12-10T04:49:49;334.38;;;37.85;;
59169;SDS011;52474;52.236;5.114;2022-12-10T04:52:16;276.75;;;35.13;;
59169;SDS011;52474;52.236;5.114;2022-12-10T04:54:42;270.45;;;34.45;;
59169;SDS011;52474;52.236;5.114;2022-12-10T04:57:09;327.58;;;37.65;;
59169;SDS011;52474;52.236;5.114;2022-12-10T04:59:36;353.23;;;37.10;;
59169;SDS011;52474;52.236;5.114;2022-12-10T05:02:02;298.05;;;34.78;;
59169;SDS011;52474;52.236;5.114;2022-12-10T05:04:29;302.75;;;37.72;;
59169;SDS011;52474;52.236;5.114;2022-12-10T05:06:55;235.02;;;32.88;;
59169;SDS011;52474;52.236;5.114;2022-12-10T05:09:20;237.70;;;30.42;;
59169;SDS011;52474;52.236;5.114;2022-12-10T05:11:46;249.02;;;30.83;;
59169;SDS011;52474;52.236;5.114;2022-12-10T05:14:12;251.80;;;31.25;;
59169;SDS011;52474;52.236;5.114;2022-12-10T05:16:40;172.80;;;27.77;;
59169;SDS011;52474;52.236;5.114;2022-12-10T05:19:06;181.85;;;27.13;;
59169;SDS011;52474;52.236;5.114;2022-12-10T05:21:33;172.73;;;25.80;;
59169;SDS011;52474;52.236;5.114;2022-12-10T05:24:17;190.93;;;30.23;;
59169;SDS011;52474;52.236;5.114;2022-12-10T05:26:44;189.73;;;28.90;;
59169;SDS011;52474;52.236;5.114;2022-12-10T05:29:11;176.50;;;25.48;;
59169;SDS011;52474;52.236;5.114;2022-12-10T05:31:38;163.68;;;25.45;;
59169;SDS011;52474;52.236;5.114;2022-12-10T05:34:04;171.95;;;25.67;;
59169;SDS011;52474;52.236;5.114;2022-12-10T05:36:30;176.43;;;27.25;;
59169;SDS011;52474;52.236;5.114;2022-12-10T05:38:57;222.50;;;30.30;;
59169;SDS011;52474;52.236;5.114;2022-12-10T05:41:28;167.52;;;27.27;;
59169;SDS011;52474;52.236;5.114;2022-12-10T05:43:57;183.75;;;25.02;;
59169;SDS011;52474;52.236;5.114;2022-12-10T05:46:24;198.27;;;26.27;;
59169;SDS011;52474;52.236;5.114;2022-12-10T05:48:51;173.73;;;24.80;;
59169;SDS011;52474;52.236;5.114;2022-12-10T05:51:27;248.60;;;28.88;;
59169;SDS011;52474;52.236;5.114;2022-12-10T05:53:56;168.75;;;25.88;;
59169;SDS011;52474;52.236;5.114;2022-12-10T05:56:23;146.77;;;23.67;;
59169;SDS011;52474;52.236;5.114;2022-12-10T05:58:52;165.45;;;23.20;;
59169;SDS011;52474;52.236;5.114;2022-12-10T06:01:24;157.73;;;21.98;;
59169;SDS011;52474;52.236;5.114;2022-12-10T06:03:52;168.20;;;24.98;;
59169;SDS011;52474;52.236;5.114;2022-12-10T06:06:22;171.13;;;25.05;;
59169;SDS011;52474;52.236;5.114;2022-12-10T06:08:50;164.77;;;25.35;;
59169;SDS011;52474;52.236;5.114;2022-12-10T06:11:16;161.40;;;24.48;;
59169;SDS011;52474;52.236;5.114;2022-12-10T06:13:42;173.50;;;24.63;;
59169;SDS011;52474;52.236;5.114;2022-12-10T06:16:09;152.88;;;23.55;;
59169;SDS011;52474;52.236;5.114;2022-12-10T06:18:36;150.52;;;23.63;;
59169;SDS011;52474;52.236;5.114;2022-12-10T06:21:03;200.20;;;25.67;;
59169;SDS011;52474;52.236;5.114;2022-12-10T06:23:30;198.65;;;28.08;;
59169;SDS011;52474;52.236;5.114;2022-12-10T06:25:56;170.15;;;24.95;;
59169;SDS011;52474;52.236;5.114;2022-12-10T06:28:21;180.23;;;26.95;;
59169;SDS011;52474;52.236;5.114;2022-12-10T06:30:47;176.60;;;26.83;;
59169;SDS011;52474;52.236;5.114;2022-12-10T06:33:13;240.77;;;29.23;;
59169;SDS011;52474;52.236;5.114;2022-12-10T06:35:38;204.10;;;27.92;;
59169;SDS011;52474;52.236;5.114;2022-12-10T06:38:04;199.45;;;26.65;;
59169;SDS011;52474;52.236;5.114;2022-12-10T06:40:30;150.73;;;23.13;;
59169;SDS011;52474;52.236;5.114;2022-12-10T06:42:55;193.27;;;26.98;;
59169;SDS011;52474;52.236;5.114;2022-12-10T06:45:21;168.57;;;23.55;;
59169;SDS011;52474;52.236;5.114;2022-12-10T06:47:47;181.25;;;26.33;;
59169;SDS011;52474;52.236;5.114;2022-12-10T06:50:12;139.98;;;21.80;;
59169;SDS011;52474;52.236;5.114;2022-12-10T06:52:38;168.32;;;22.67;;
59169;SDS011;52474;52.236;5.114;2022-12-10T06:55:04;189.10;;;26.13;;
59169;SDS011;52474;52.236;5.114;2022-12-10T06:57:30;164.40;;;23.25;;
59169;SDS011;52474;52.236;5.114;2022-12-10T06:59:56;132.60;;;22.02;;
59169;SDS011;52474;52.236;5.114;2022-12-10T07:02:21;155.75;;;21.25;;
59169;SDS011;52474;52.236;5.114;2022-12-10T07:04:47;121.88;;;21.80;;
59169;SDS011;52474;52.236;5.114;2022-12-10T07:07:13;163.15;;;22.05;;
59169;SDS011;52474;52.236;5.114;2022-12-10T07:09:41;191.45;;;23.48;;
59169;SDS011;52474;52.236;5.114;2022-12-10T07:12:06;162.10;;;24.52;;
59169;SDS011;52474;52.236;5.114;2022-12-10T07:14:32;169.75;;;23.10;;
59169;SDS011;52474;52.236;5.114;2022-12-10T07:16:58;179.70;;;25.05;;
59169;SDS011;52474;52.236;5.114;2022-12-10T07:19:24;136.65;;;22.88;;
59169;SDS011;52474;52.236;5.114;2022-12-10T07:21:50;170.95;;;23.77;;
59169;SDS011;52474;52.236;5.114;2022-12-10T07:24:18;143.45;;;20.92;;
59169;SDS011;52474;52.236;5.114;2022-12-10T07:26:44;130.63;;;20.23;;
59169;SDS011;52474;52.236;5.114;2022-12-10T07:29:12;113.35;;;19.65;;
59169;SDS011;52474;52.236;5.114;2022-12-10T07:31:40;169.68;;;24.20;;
59169;SDS011;52474;52.236;5.114;2022-12-10T07:34:09;136.73;;;22.70;;
59169;SDS011;52474;52.236;5.114;2022-12-10T07:36:36;149.20;;;21.02;;
59169;SDS011;52474;52.236;5.114;2022-12-10T07:39:04;185.18;;;25.10;;
59169;SDS011;52474;52.236;5.114;2022-12-10T07:41:31;200.02;;;27.45;;
59169;SDS011;52474;52.236;5.114;2022-12-10T07:43:57;184.32;;;26.00;;
59169;SDS011;52474;52.236;5.114;2022-12-10T07:46:24;138.85;;;24.80;;
59169;SDS011;52474;52.236;5.114;2022-12-10T07:48:52;108.15;;;20.52;;
59169;SDS011;52474;52.236;5.114;2022-12-10T07:51:19;108.38;;;20.15;;
59169;SDS011;52474;52.236;5.114;2022-12-10T07:53:46;156.85;;;24.20;;
59169;SDS011;52474;52.236;5.114;2022-12-10T07:56:12;129.38;;;21.88;;
59169;SDS011;52474;52.236;5.114;2022-12-10T07:58:42;144.15;;;24.35;;
59169;SDS011;52474;52.236;5.114;2022-12-10T08:01:13;121.25;;;21.15;;
59169;SDS011;52474;52.236;5.114;2022-12-10T08:03:42;130.55;;;22.70;;
59169;SDS011;52474;52.236;5.114;2022-12-10T08:06:09;177.48;;;26.63;;
59169;SDS011;52474;52.236;5.114;2022-12-10T08:08:43;156.27;;;24.83;;
59169;SDS011;52474;52.236;5.114;2022-12-10T08:11:12;167.70;;;26.50;;
59169;SDS011;52474;52.236;5.114;2022-12-10T08:13:39;139.82;;;23.05;;
59169;SDS011;52474;52.236;5.114;2022-12-10T08:16:06;135.60;;;23.30;;
59169;SDS011;52474;52.236;5.114;2022-12-10T08:18:33;99.38;;;19.88;;
59169;SDS011;52474;52.236;5.114;2022-12-10T08:21:06;147.02;;;26.35;;
59169;SDS011;52474;52.236;5.114;2022-12-10T08:23:34;133.20;;;23.85;;
59169;SDS011;52474;52.236;5.114;2022-12-10T08:26:06;93.00;;;20.05;;
59169;SDS011;52474;52.236;5.114;2022-12-10T08:28:33;121.30;;;24.20;;
59169;SDS011;52474;52.236;5.114;2022-12-10T08:31:00;147.65;;;26.45;;
59169;SDS011;52474;52.236;5.114;2022-12-10T08:33:26;119.28;;;22.13;;
59169;SDS011;52474;52.236;5.114;2022-12-10T08:35:52;94.85;;;21.23;;
59169;SDS011;52474;52.236;5.114;2022-12-10T08:38:23;127.13;;;24.08;;
59169;SDS011;52474;52.236;5.114;2022-12-10T08:40:48;131.95;;;22.77;;
59169;SDS011;52474;52.236;5.114;2022-12-10T08:43:14;94.43;;;20.20;;
59169;SDS011;52474;52.236;5.114;2022-12-10T08:45:40;135.05;;;25.15;;
59169;SDS011;52474;52.236;5.114;2022-12-10T08:48:05;127.88;;;25.23;;
59169;SDS011;52474;52.236;5.114;2022-12-10T08:50:31;106.70;;;21.58;;
59169;SDS011;52474;52.236;5.114;2022-12-10T08:53:00;132.48;;;24.88;;
59169;SDS011;52474;52.236;5.114;2022-12-10T08:55:25;115.53;;;25.00;;
59169;SDS011;52474;52.236;5.114;2022-12-10T08:57:51;141.38;;;27.90;;
59169;SDS011;52474;52.236;5.114;2022-12-10T09:00:17;137.90;;;25.58;;
59169;SDS011;52474;52.236;5.114;2022-12-10T09:02:44;125.90;;;24.55;;
59169;SDS011;52474;52.236;5.114;2022-12-10T09:05:10;137.75;;;24.92;;
59169;SDS011;52474;52.236;5.114;2022-12-10T09:07:36;130.60;;;26.60;;
59169;SDS011;52474;52.236;5.114;2022-12-10T09:10:02;173.82;;;27.30;;
59169;SDS011;52474;52.236;5.114;2022-12-10T09:12:28;187.85;;;30.02;;
59169;SDS011;52474;52.236;5.114;2022-12-10T09:14:54;206.73;;;30.58;;
59169;SDS011;52474;52.236;5.114;2022-12-10T09:17:20;150.75;;;26.33;;
59169;SDS011;52474;52.236;5.114;2022-12-10T09:19:46;189.68;;;29.20;;
59169;SDS011;52474;52.236;5.114;2022-12-10T09:22:11;168.05;;;28.50;;
59169;SDS011;52474;52.236;5.114;2022-12-10T09:24:37;117.13;;;21.80;;
59169;SDS011;52474;52.236;5.114;2022-12-10T09:27:03;170.55;;;28.80;;
59169;SDS011;52474;52.236;5.114;2022-12-10T09:29:29;142.85;;;28.02;;
59169;SDS011;52474;52.236;5.114;2022-12-10T09:31:54;128.40;;;24.50;;
59169;SDS011;52474;52.236;5.114;2022-12-10T09:34:20;142.55;;;28.20;;
59169;SDS011;52474;52.236;5.114;2022-12-10T09:36:46;135.35;;;25.83;;
59169;SDS011;52474;52.236;5.114;2022-12-10T09:39:13;156.50;;;33.33;;
59169;SDS011;52474;52.236;5.114;2022-12-10T09:47:31;152.50;;;40.60;;
59169;SDS011;52474;52.236;5.114;2022-12-10T09:52:39;152.88;;;35.03;;
59169;SDS011;52474;52.236;5.114;2022-12-10T09:55:12;226.57;;;47.03;;
59169;SDS011;52474;52.236;5.114;2022-12-10T09:57:45;214.52;;;45.08;;
59169;SDS011;52474;52.236;5.114;2022-12-10T10:00:30;194.10;;;36.35;;
59169;SDS011;52474;52.236;5.114;2022-12-10T10:03:01;124.53;;;29.08;;
59169;SDS011;52474;52.236;5.114;2022-12-10T10:05:28;147.13;;;29.38;;
59169;SDS011;52474;52.236;5.114;2022-12-10T10:07:58;157.93;;;29.13;;
59169;SDS011;52474;52.236;5.114;2022-12-10T10:10:28;196.63;;;40.20;;
59169;SDS011;52474;52.236;5.114;2022-12-10T10:13:15;136.02;;;28.42;;
59169;SDS011;52474;52.236;5.114;2022-12-10T10:15:51;184.75;;;42.60;;
59169;SDS011;52474;52.236;5.114;2022-12-10T10:21:10;189.43;;;30.67;;
59169;SDS011;52474;52.236;5.114;2022-12-10T10:23:42;152.18;;;32.35;;
59169;SDS011;52474;52.236;5.114;2022-12-10T10:26:10;177.10;;;35.65;;
59169;SDS011;52474;52.236;5.114;2022-12-10T10:28:42;151.40;;;30.65;;
59169;SDS011;52474;52.236;5.114;2022-12-10T10:31:18;155.38;;;30.95;;
59169;SDS011;52474;52.236;5.114;2022-12-10T10:33:47;177.95;;;33.65;;
59169;SDS011;52474;52.236;5.114;2022-12-10T10:36:15;195.57;;;33.03;;
59169;SDS011;52474;52.236;5.114;2022-12-10T10:38:43;138.43;;;30.75;;
59169;SDS011;52474;52.236;5.114;2022-12-10T10:41:13;138.75;;;27.33;;
59169;SDS011;52474;52.236;5.114;2022-12-10T10:43:43;122.33;;;27.10;;
59169;SDS011;52474;52.236;5.114;2022-12-10T10:46:22;182.60;;;30.42;;
59169;SDS011;52474;52.236;5.114;2022-12-10T10:48:49;162.27;;;24.30;;
59169;SDS011;52474;52.236;5.114;2022-12-10T10:51:18;167.43;;;28.23;;
59169;SDS011;52474;52.236;5.114;2022-12-10T10:56:27;231.40;;;30.38;;
59169;SDS011;52474;52.236;5.114;2022-12-10T11:01:47;155.10;;;28.33;;
59169;SDS011;52474;52.236;5.114;2022-12-10T11:04:15;151.90;;;27.00;;
59169;SDS011;52474;52.236;5.114;2022-12-10T11:06:43;153.57;;;27.10;;
59169;SDS011;52474;52.236;5.114;2022-12-10T11:09:15;122.00;;;25.90;;
59169;SDS011;52474;52.236;5.114;2022-12-10T11:12:06;168.23;;;27.92;;
59169;SDS011;52474;52.236;5.114;2022-12-10T11:14:46;147.45;;;26.05;;
59169;SDS011;52474;52.236;5.114;2022-12-10T11:19:44;201.10;;;31.05;;
59169;SDS011;52474;52.236;5.114;2022-12-10T11:22:21;164.65;;;26.50;;
59169;SDS011;52474;52.236;5.114;2022-12-10T11:24:54;194.07;;;28.60;;
59169;SDS011;52474;52.236;5.114;2022-12-10T11:30:40;130.65;;;25.45;;
59169;SDS011;52474;52.236;5.114;2022-12-10T11:36:04;185.75;;;26.98;;
59169;SDS011;52474;52.236;5.114;2022-12-10T11:49:23;195.85;;;30.70;;
59169;SDS011;52474;52.236;5.114;2022-12-10T11:54:42;161.57;;;27.85;;
59169;SDS011;52474;52.236;5.114;2022-12-10T12:00:26;136.82;;;24.05;;
59169;SDS011;52474;52.236;5.114;2022-12-10T12:03:24;145.13;;;24.38;;
59169;SDS011;52474;52.236;5.114;2022-12-10T12:06:20;136.50;;;24.00;;
59169;SDS011;52474;52.236;5.114;2022-12-10T12:09:20;128.82;;;25.13;;
59169;SDS011;52474;52.236;5.114;2022-12-10T12:14:21;144.00;;;24.40;;
59169;SDS011;52474;52.236;5.114;2022-12-10T12:16:55;126.35;;;24.67;;
59169;SDS011;52474;52.236;5.114;2022-12-10T12:19:54;143.52;;;25.42;;
59169;SDS011;52474;52.236;5.114;2022-12-10T12:22:29;147.80;;;24.45;;
59169;SDS011;52474;52.236;5.114;2022-12-10T12:25:02;132.38;;;22.52;;
59169;SDS011;52474;52.236;5.114;2022-12-10T12:27:33;159.85;;;25.05;;
59169;SDS011;52474;52.236;5.114;2022-12-10T12:40:51;155.40;;;25.00;;
59169;SDS011;52474;52.236;5.114;2022-12-10T12:43:32;179.77;;;26.48;;
59169;SDS011;52474;52.236;5.114;2022-12-10T12:46:10;147.52;;;25.65;;
59169;SDS011;52474;52.236;5.114;2022-12-10T12:53:50;163.55;;;25.55;;
59169;SDS011;52474;52.236;5.114;2022-12-10T12:59:33;145.77;;;21.83;;
59169;SDS011;52474;52.236;5.114;2022-12-10T13:05:12;131.52;;;22.85;;
59169;SDS011;52474;52.236;5.114;2022-12-10T13:07:40;150.07;;;25.08;;
59169;SDS011;52474;52.236;5.114;2022-12-10T13:12:32;130.85;;;21.77;;
59169;SDS011;52474;52.236;5.114;2022-12-10T13:18:04;143.77;;;21.75;;
59169;SDS011;52474;52.236;5.114;2022-12-10T13:34:34;137.77;;;22.65;;
59169;SDS011;52474;52.236;5.114;2022-12-10T13:36:28;129.57;;;19.63;;
59169;SDS011;52474;52.236;5.114;2022-12-10T13:39:31;112.25;;;20.00;;
59169;SDS011;52474;52.236;5.114;2022-12-10T13:47:43;139.43;;;20.88;;
59169;SDS011;52474;52.236;5.114;2022-12-10T13:50:45;114.95;;;22.00;;
59169;SDS011;52474;52.236;5.114;2022-12-10T14:02:00;145.95;;;22.73;;
59169;SDS011;52474;52.236;5.114;2022-12-10T14:07:12;137.63;;;23.50;;
59169;SDS011;52474;52.236;5.114;2022-12-10T14:09:48;116.25;;;21.13;;
59169;SDS011;52474;52.236;5.114;2022-12-10T14:12:18;99.00;;;19.35;;
59169;SDS011;52474;52.236;5.114;2022-12-10T14:15:16;125.90;;;22.98;;
59169;SDS011;52474;52.236;5.114;2022-12-10T14:17:49;112.40;;;19.15;;
59169;SDS011;52474;52.236;5.114;2022-12-10T14:20:22;130.15;;;20.92;;
59169;SDS011;52474;52.236;5.114;2022-12-10T14:22:50;166.23;;;21.92;;
59169;SDS011;52474;52.236;5.114;2022-12-10T14:25:20;148.43;;;22.20;;
59169;SDS011;52474;52.236;5.114;2022-12-10T14:27:48;178.88;;;24.00;;
59169;SDS011;52474;52.236;5.114;2022-12-10T14:30:20;141.15;;;22.40;;
59169;SDS011;52474;52.236;5.114;2022-12-10T14:32:48;143.43;;;24.77;;
59169;SDS011;52474;52.236;5.114;2022-12-10T14:35:16;143.80;;;22.92;;
59169;SDS011;52474;52.236;5.114;2022-12-10T14:37:47;156.13;;;23.20;;
59169;SDS011;52474;52.236;5.114;2022-12-10T14:40:24;151.57;;;25.25;;
59169;SDS011;52474;52.236;5.114;2022-12-10T14:43:04;166.65;;;24.48;;
59169;SDS011;52474;52.236;5.114;2022-12-10T14:45:54;185.65;;;25.40;;
59169;SDS011;52474;52.236;5.114;2022-12-10T14:48:19;173.73;;;24.75;;
59169;SDS011;52474;52.236;5.114;2022-12-10T14:50:45;169.93;;;26.13;;
59169;SDS011;52474;52.236;5.114;2022-12-10T14:53:13;143.25;;;23.20;;
59169;SDS011;52474;52.236;5.114;2022-12-10T14:55:40;185.73;;;26.15;;
59169;SDS011;52474;52.236;5.114;2022-12-10T14:58:09;179.82;;;25.52;;
59169;SDS011;52474;52.236;5.114;2022-12-10T15:00:40;182.80;;;26.50;;
59169;SDS011;52474;52.236;5.114;2022-12-10T15:03:07;175.15;;;24.75;;
59169;SDS011;52474;52.236;5.114;2022-12-10T15:05:35;174.80;;;24.48;;
59169;SDS011;52474;52.236;5.114;2022-12-10T15:08:05;152.13;;;25.05;;
59169;SDS011;52474;52.236;5.114;2022-12-10T15:10:38;156.13;;;25.17;;
59169;SDS011;52474;52.236;5.114;2022-12-10T15:13:07;149.77;;;20.92;;
59169;SDS011;52474;52.236;5.114;2022-12-10T15:15:41;152.30;;;24.58;;
59169;SDS011;52474;52.236;5.114;2022-12-10T15:21:09;138.23;;;22.17;;
59169;SDS011;52474;52.236;5.114;2022-12-10T15:24:18;128.10;;;22.48;;
59169;SDS011;52474;52.236;5.114;2022-12-10T15:26:46;109.15;;;21.15;;
59169;SDS011;52474;52.236;5.114;2022-12-10T15:31:48;137.93;;;22.85;;
59169;SDS011;52474;52.236;5.114;2022-12-10T15:34:15;141.90;;;23.65;;
59169;SDS011;52474;52.236;5.114;2022-12-10T15:36:48;181.48;;;25.13;;
59169;SDS011;52474;52.236;5.114;2022-12-10T15:39:19;150.50;;;22.00;;
59169;SDS011;52474;52.236;5.114;2022-12-10T15:41:59;160.35;;;24.17;;
59169;SDS011;52474;52.236;5.114;2022-12-10T15:46:59;187.07;;;25.33;;
59169;SDS011;52474;52.236;5.114;2022-12-10T15:49:45;174.40;;;24.67;;
59169;SDS011;52474;52.236;5.114;2022-12-10T15:52:16;208.23;;;27.80;;
59169;SDS011;52474;52.236;5.114;2022-12-10T15:54:48;174.27;;;23.70;;
59169;SDS011;52474;52.236;5.114;2022-12-10T15:57:25;195.75;;;26.08;;
59169;SDS011;52474;52.236;5.114;2022-12-10T16:00:00;216.35;;;27.40;;
59169;SDS011;52474;52.236;5.114;2022-12-10T16:02:39;244.55;;;27.35;;
59169;SDS011;52474;52.236;5.114;2022-12-10T16:07:46;191.18;;;24.52;;
59169;SDS011;52474;52.236;5.114;2022-12-10T16:10:16;236.20;;;29.10;;
59169;SDS011;52474;52.236;5.114;2022-12-10T16:12:44;252.18;;;28.75;;
59169;SDS011;52474;52.236;5.114;2022-12-10T16:15:17;231.50;;;29.05;;
59169;SDS011;52474;52.236;5.114;2022-12-10T16:17:46;252.02;;;28.83;;
59169;SDS011;52474;52.236;5.114;2022-12-10T16:22:50;262.17;;;28.50;;
59169;SDS011;52474;52.236;5.114;2022-12-10T16:25:16;202.57;;;28.55;;
59169;SDS011;52474;52.236;5.114;2022-12-10T16:27:42;188.15;;;27.38;;
59169;SDS011;52474;52.236;5.114;2022-12-10T16:30:11;215.73;;;27.38;;
59169;SDS011;52474;52.236;5.114;2022-12-10T16:32:39;179.57;;;26.45;;
59169;SDS011;52474;52.236;5.114;2022-12-10T16:35:05;245.13;;;30.38;;
59169;SDS011;52474;52.236;5.114;2022-12-10T16:37:30;268.65;;;30.42;;
59169;SDS011;52474;52.236;5.114;2022-12-10T16:39:56;262.67;;;29.30;;
59169;SDS011;52474;52.236;5.114;2022-12-10T16:42:22;212.68;;;26.52;;
59169;SDS011;52474;52.236;5.114;2022-12-10T16:44:48;228.15;;;30.58;;
59169;SDS011;52474;52.236;5.114;2022-12-10T16:47:13;233.23;;;28.05;;
59169;SDS011;52474;52.236;5.114;2022-12-10T16:49:39;183.55;;;26.17;;